Terminal Aerodrome Forecast
Issued by NWS

Home | Current Version | Previous Version | Text Only | Print | Product List | Glossary Off
Versions: 1 2 3 4 5 6 7 8 9 10 11 12 13 14 15

725
FTUS43 KBIS 050521
TAFMOT
TAF
KMOT 050521Z 0506/0606 18015KT P6SM SKC WS015/20035KT
     FM051600 21010KT P6SM SKC=

USA.gov is the U.S. government's official web portal to all federal, state and local government web resources and services.